sensor_id;sensor_type;location;lat;lon;timestamp;P1;durP1;ratioP1;P2;durP2;ratioP2
14078;SDS011;7115;50.150;8.568;2023-12-14T00:01:14;12.20;;;5.90;;
14078;SDS011;7115;50.150;8.568;2023-12-14T00:03:41;8.33;;;4.80;;
14078;SDS011;7115;50.150;8.568;2023-12-14T00:06:11;8.43;;;5.30;;
14078;SDS011;7115;50.150;8.568;2023-12-14T00:08:39;9.73;;;5.83;;
14078;SDS011;7115;50.150;8.568;2023-12-14T00:11:07;14.77;;;5.87;;
14078;SDS011;7115;50.150;8.568;2023-12-14T00:13:35;12.60;;;5.47;;
14078;SDS011;7115;50.150;8.568;2023-12-14T00:16:05;9.43;;;5.63;;
14078;SDS011;7115;50.150;8.568;2023-12-14T00:18:32;13.47;;;6.00;;
14078;SDS011;7115;50.150;8.568;2023-12-14T00:20:59;10.47;;;5.70;;
14078;SDS011;7115;50.150;8.568;2023-12-14T00:23:26;13.07;;;5.60;;
14078;SDS011;7115;50.150;8.568;2023-12-14T00:25:53;8.33;;;4.17;;
14078;SDS011;7115;50.150;8.568;2023-12-14T00:28:20;9.33;;;4.60;;
14078;SDS011;7115;50.150;8.568;2023-12-14T00:30:47;11.07;;;4.67;;
14078;SDS011;7115;50.150;8.568;2023-12-14T00:33:15;7.10;;;4.23;;
14078;SDS011;7115;50.150;8.568;2023-12-14T00:35:42;6.33;;;3.60;;
14078;SDS011;7115;50.150;8.568;2023-12-14T00:38:09;6.27;;;3.13;;
14078;SDS011;7115;50.150;8.568;2023-12-14T00:40:36;8.23;;;3.67;;
14078;SDS011;7115;50.150;8.568;2023-12-14T00:43:03;8.30;;;3.00;;
14078;SDS011;7115;50.150;8.568;2023-12-14T00:45:30;8.20;;;3.90;;
14078;SDS011;7115;50.150;8.568;2023-12-14T00:47:57;7.00;;;4.30;;
14078;SDS011;7115;50.150;8.568;2023-12-14T00:50:25;8.77;;;4.27;;
14078;SDS011;7115;50.150;8.568;2023-12-14T00:52:52;12.13;;;4.90;;
14078;SDS011;7115;50.150;8.568;2023-12-14T00:55:19;9.43;;;4.00;;
14078;SDS011;7115;50.150;8.568;2023-12-14T00:57:46;12.07;;;4.73;;
14078;SDS011;7115;50.150;8.568;2023-12-14T01:00:14;9.23;;;3.70;;
14078;SDS011;7115;50.150;8.568;2023-12-14T01:02:41;6.90;;;3.73;;
14078;SDS011;7115;50.150;8.568;2023-12-14T01:05:08;8.57;;;4.20;;
14078;SDS011;7115;50.150;8.568;2023-12-14T01:07:37;10.83;;;3.70;;
14078;SDS011;7115;50.150;8.568;2023-12-14T01:10:04;10.07;;;3.73;;
14078;SDS011;7115;50.150;8.568;2023-12-14T01:12:32;11.67;;;3.80;;
14078;SDS011;7115;50.150;8.568;2023-12-14T01:14:59;10.03;;;3.00;;
14078;SDS011;7115;50.150;8.568;2023-12-14T01:17:26;12.97;;;3.33;;
14078;SDS011;7115;50.150;8.568;2023-12-14T01:19:55;8.20;;;2.70;;
14078;SDS011;7115;50.150;8.568;2023-12-14T01:22:22;9.70;;;2.80;;
14078;SDS011;7115;50.150;8.568;2023-12-14T01:24:50;7.83;;;3.10;;
14078;SDS011;7115;50.150;8.568;2023-12-14T01:27:17;5.00;;;2.67;;
14078;SDS011;7115;50.150;8.568;2023-12-14T01:29:44;6.23;;;3.00;;
14078;SDS011;7115;50.150;8.568;2023-12-14T01:32:11;9.77;;;3.80;;
14078;SDS011;7115;50.150;8.568;2023-12-14T01:34:38;9.93;;;4.03;;
14078;SDS011;7115;50.150;8.568;2023-12-14T01:37:04;10.33;;;4.23;;
14078;SDS011;7115;50.150;8.568;2023-12-14T01:39:31;9.20;;;4.37;;
14078;SDS011;7115;50.150;8.568;2023-12-14T01:42:00;11.40;;;4.63;;
14078;SDS011;7115;50.150;8.568;2023-12-14T01:44:27;13.97;;;4.80;;
14078;SDS011;7115;50.150;8.568;2023-12-14T01:46:54;18.33;;;5.03;;
14078;SDS011;7115;50.150;8.568;2023-12-14T01:49:20;26.13;;;6.10;;
14078;SDS011;7115;50.150;8.568;2023-12-14T01:51:47;47.40;;;7.23;;
14078;SDS011;7115;50.150;8.568;2023-12-14T01:54:14;26.47;;;5.40;;
14078;SDS011;7115;50.150;8.568;2023-12-14T01:56:41;14.37;;;5.13;;
14078;SDS011;7115;50.150;8.568;2023-12-14T01:59:09;17.00;;;4.97;;
14078;SDS011;7115;50.150;8.568;2023-12-14T02:01:38;16.27;;;5.50;;
14078;SDS011;7115;50.150;8.568;2023-12-14T02:04:08;15.27;;;5.13;;
14078;SDS011;7115;50.150;8.568;2023-12-14T02:06:36;12.60;;;4.93;;
14078;SDS011;7115;50.150;8.568;2023-12-14T02:09:03;18.03;;;6.13;;
14078;SDS011;7115;50.150;8.568;2023-12-14T02:11:30;19.97;;;6.43;;
14078;SDS011;7115;50.150;8.568;2023-12-14T02:13:57;13.17;;;5.87;;
14078;SDS011;7115;50.150;8.568;2023-12-14T02:16:30;14.67;;;5.80;;
14078;SDS011;7115;50.150;8.568;2023-12-14T02:18:58;12.00;;;5.90;;
14078;SDS011;7115;50.150;8.568;2023-12-14T02:21:25;16.20;;;6.57;;
14078;SDS011;7115;50.150;8.568;2023-12-14T02:23:53;31.17;;;6.80;;
14078;SDS011;7115;50.150;8.568;2023-12-14T02:26:20;27.47;;;6.80;;
14078;SDS011;7115;50.150;8.568;2023-12-14T02:28:47;13.87;;;5.10;;
14078;SDS011;7115;50.150;8.568;2023-12-14T02:31:14;21.43;;;5.73;;
14078;SDS011;7115;50.150;8.568;2023-12-14T02:33:41;18.83;;;6.37;;
14078;SDS011;7115;50.150;8.568;2023-12-14T02:36:08;18.57;;;5.47;;
14078;SDS011;7115;50.150;8.568;2023-12-14T02:38:35;24.37;;;5.23;;
14078;SDS011;7115;50.150;8.568;2023-12-14T02:41:03;14.80;;;4.77;;
14078;SDS011;7115;50.150;8.568;2023-12-14T02:43:30;18.50;;;5.20;;
14078;SDS011;7115;50.150;8.568;2023-12-14T02:45:57;17.00;;;6.00;;
14078;SDS011;7115;50.150;8.568;2023-12-14T02:48:28;17.47;;;6.70;;
14078;SDS011;7115;50.150;8.568;2023-12-14T02:50:58;20.33;;;7.10;;
14078;SDS011;7115;50.150;8.568;2023-12-14T02:53:28;22.17;;;6.67;;
14078;SDS011;7115;50.150;8.568;2023-12-14T02:55:55;19.23;;;6.77;;
14078;SDS011;7115;50.150;8.568;2023-12-14T02:58:24;34.87;;;8.00;;
14078;SDS011;7115;50.150;8.568;2023-12-14T03:00:50;30.30;;;7.37;;
14078;SDS011;7115;50.150;8.568;2023-12-14T03:03:17;27.23;;;7.57;;
14078;SDS011;7115;50.150;8.568;2023-12-14T03:05:44;16.20;;;7.20;;
14078;SDS011;7115;50.150;8.568;2023-12-14T03:08:12;27.37;;;7.83;;
14078;SDS011;7115;50.150;8.568;2023-12-14T03:10:39;48.67;;;8.63;;
14078;SDS011;7115;50.150;8.568;2023-12-14T03:13:05;46.10;;;8.87;;
14078;SDS011;7115;50.150;8.568;2023-12-14T03:15:34;66.27;;;9.53;;
14078;SDS011;7115;50.150;8.568;2023-12-14T03:18:00;27.63;;;9.20;;
14078;SDS011;7115;50.150;8.568;2023-12-14T03:20:29;42.73;;;9.60;;
14078;SDS011;7115;50.150;8.568;2023-12-14T03:22:56;50.20;;;8.83;;
14078;SDS011;7115;50.150;8.568;2023-12-14T03:25:23;15.33;;;9.17;;
14078;SDS011;7115;50.150;8.568;2023-12-14T03:27:50;36.83;;;9.43;;
14078;SDS011;7115;50.150;8.568;2023-12-14T03:30:17;53.37;;;10.27;;
14078;SDS011;7115;50.150;8.568;2023-12-14T03:32:45;56.17;;;9.97;;
14078;SDS011;7115;50.150;8.568;2023-12-14T03:35:12;61.57;;;9.77;;
14078;SDS011;7115;50.150;8.568;2023-12-14T03:37:40;34.03;;;10.07;;
14078;SDS011;7115;50.150;8.568;2023-12-14T03:40:07;14.43;;;8.90;;
14078;SDS011;7115;50.150;8.568;2023-12-14T03:42:34;16.47;;;8.83;;
14078;SDS011;7115;50.150;8.568;2023-12-14T03:45:02;28.67;;;9.77;;
14078;SDS011;7115;50.150;8.568;2023-12-14T03:47:30;25.17;;;9.00;;
14078;SDS011;7115;50.150;8.568;2023-12-14T03:49:58;13.07;;;8.73;;
14078;SDS011;7115;50.150;8.568;2023-12-14T03:52:25;16.47;;;9.33;;
14078;SDS011;7115;50.150;8.568;2023-12-14T03:54:54;13.47;;;9.00;;
14078;SDS011;7115;50.150;8.568;2023-12-14T03:57:21;27.03;;;10.07;;
14078;SDS011;7115;50.150;8.568;2023-12-14T03:59:48;22.13;;;10.57;;
14078;SDS011;7115;50.150;8.568;2023-12-14T04:02:15;21.07;;;9.67;;
14078;SDS011;7115;50.150;8.568;2023-12-14T04:04:41;16.83;;;9.60;;
14078;SDS011;7115;50.150;8.568;2023-12-14T04:07:11;12.47;;;8.90;;
14078;SDS011;7115;50.150;8.568;2023-12-14T04:09:37;11.43;;;7.83;;
14078;SDS011;7115;50.150;8.568;2023-12-14T04:12:05;17.40;;;9.03;;
14078;SDS011;7115;50.150;8.568;2023-12-14T04:14:32;12.10;;;8.47;;
14078;SDS011;7115;50.150;8.568;2023-12-14T04:16:59;14.07;;;8.73;;
14078;SDS011;7115;50.150;8.568;2023-12-14T04:19:26;13.40;;;9.20;;
14078;SDS011;7115;50.150;8.568;2023-12-14T04:21:53;29.53;;;10.27;;
14078;SDS011;7115;50.150;8.568;2023-12-14T04:24:21;34.97;;;10.07;;
14078;SDS011;7115;50.150;8.568;2023-12-14T04:26:48;21.60;;;10.00;;
14078;SDS011;7115;50.150;8.568;2023-12-14T04:29:15;28.67;;;9.60;;
14078;SDS011;7115;50.150;8.568;2023-12-14T04:31:42;39.50;;;11.17;;
14078;SDS011;7115;50.150;8.568;2023-12-14T04:34:09;59.63;;;10.20;;
14078;SDS011;7115;50.150;8.568;2023-12-14T04:36:40;173.03;;;15.57;;
14078;SDS011;7115;50.150;8.568;2023-12-14T04:39:07;64.97;;;12.57;;
14078;SDS011;7115;50.150;8.568;2023-12-14T04:41:36;53.97;;;11.37;;
14078;SDS011;7115;50.150;8.568;2023-12-14T04:44:03;36.90;;;11.23;;
14078;SDS011;7115;50.150;8.568;2023-12-14T04:46:30;66.27;;;12.10;;
14078;SDS011;7115;50.150;8.568;2023-12-14T04:48:57;57.57;;;10.80;;
14078;SDS011;7115;50.150;8.568;2023-12-14T04:51:24;27.17;;;10.97;;
14078;SDS011;7115;50.150;8.568;2023-12-14T04:53:52;55.87;;;12.43;;
14078;SDS011;7115;50.150;8.568;2023-12-14T04:56:19;45.00;;;12.07;;
14078;SDS011;7115;50.150;8.568;2023-12-14T04:58:47;47.27;;;12.07;;
14078;SDS011;7115;50.150;8.568;2023-12-14T05:01:14;23.27;;;10.63;;
14078;SDS011;7115;50.150;8.568;2023-12-14T05:03:41;22.00;;;10.63;;
14078;SDS011;7115;50.150;8.568;2023-12-14T05:06:08;44.23;;;12.33;;
14078;SDS011;7115;50.150;8.568;2023-12-14T05:08:35;29.93;;;12.10;;
14078;SDS011;7115;50.150;8.568;2023-12-14T05:11:02;21.17;;;11.67;;
14078;SDS011;7115;50.150;8.568;2023-12-14T05:13:29;20.57;;;10.60;;
14078;SDS011;7115;50.150;8.568;2023-12-14T05:15:58;34.03;;;12.93;;
14078;SDS011;7115;50.150;8.568;2023-12-14T05:18:25;36.57;;;11.20;;
14078;SDS011;7115;50.150;8.568;2023-12-14T05:20:53;18.97;;;10.87;;
14078;SDS011;7115;50.150;8.568;2023-12-14T05:23:21;24.00;;;12.20;;
14078;SDS011;7115;50.150;8.568;2023-12-14T05:25:48;34.53;;;10.97;;
14078;SDS011;7115;50.150;8.568;2023-12-14T05:28:15;16.27;;;11.10;;
14078;SDS011;7115;50.150;8.568;2023-12-14T05:30:42;18.83;;;10.70;;
14078;SDS011;7115;50.150;8.568;2023-12-14T05:33:10;14.53;;;10.50;;
14078;SDS011;7115;50.150;8.568;2023-12-14T05:35:38;18.00;;;11.07;;
14078;SDS011;7115;50.150;8.568;2023-12-14T05:38:05;16.90;;;10.83;;
14078;SDS011;7115;50.150;8.568;2023-12-14T05:40:32;19.40;;;10.70;;
14078;SDS011;7115;50.150;8.568;2023-12-14T05:42:59;21.17;;;10.77;;
14078;SDS011;7115;50.150;8.568;2023-12-14T05:45:26;22.13;;;11.97;;
14078;SDS011;7115;50.150;8.568;2023-12-14T05:47:53;29.77;;;11.97;;
14078;SDS011;7115;50.150;8.568;2023-12-14T05:50:22;18.60;;;11.00;;
14078;SDS011;7115;50.150;8.568;2023-12-14T05:52:49;39.60;;;12.33;;
14078;SDS011;7115;50.150;8.568;2023-12-14T05:55:17;24.60;;;11.73;;
14078;SDS011;7115;50.150;8.568;2023-12-14T05:57:47;29.43;;;11.63;;
14078;SDS011;7115;50.150;8.568;2023-12-14T06:00:14;17.43;;;10.73;;
14078;SDS011;7115;50.150;8.568;2023-12-14T06:02:42;19.07;;;12.07;;
14078;SDS011;7115;50.150;8.568;2023-12-14T06:05:09;19.00;;;11.83;;
14078;SDS011;7115;50.150;8.568;2023-12-14T06:07:37;22.97;;;11.10;;
14078;SDS011;7115;50.150;8.568;2023-12-14T06:10:05;18.77;;;11.50;;
14078;SDS011;7115;50.150;8.568;2023-12-14T06:12:32;21.90;;;12.00;;
14078;SDS011;7115;50.150;8.568;2023-12-14T06:14:59;17.10;;;10.97;;
14078;SDS011;7115;50.150;8.568;2023-12-14T06:17:27;24.33;;;11.03;;
14078;SDS011;7115;50.150;8.568;2023-12-14T06:19:56;59.43;;;12.33;;
14078;SDS011;7115;50.150;8.568;2023-12-14T06:22:24;23.57;;;10.63;;
14078;SDS011;7115;50.150;8.568;2023-12-14T06:24:52;25.83;;;10.43;;
14078;SDS011;7115;50.150;8.568;2023-12-14T06:27:19;13.73;;;10.23;;
14078;SDS011;7115;50.150;8.568;2023-12-14T06:29:48;15.17;;;10.03;;
14078;SDS011;7115;50.150;8.568;2023-12-14T06:32:15;18.53;;;9.87;;
14078;SDS011;7115;50.150;8.568;2023-12-14T06:34:42;13.83;;;9.80;;
14078;SDS011;7115;50.150;8.568;2023-12-14T06:37:09;15.80;;;10.27;;
14078;SDS011;7115;50.150;8.568;2023-12-14T06:39:36;14.30;;;10.30;;
14078;SDS011;7115;50.150;8.568;2023-12-14T06:42:05;15.03;;;10.47;;
14078;SDS011;7115;50.150;8.568;2023-12-14T06:44:32;16.07;;;10.70;;
14078;SDS011;7115;50.150;8.568;2023-12-14T06:47:01;18.33;;;11.00;;
14078;SDS011;7115;50.150;8.568;2023-12-14T06:49:28;17.27;;;10.63;;
14078;SDS011;7115;50.150;8.568;2023-12-14T06:51:55;15.83;;;10.77;;
14078;SDS011;7115;50.150;8.568;2023-12-14T06:54:22;22.00;;;15.23;;
14078;SDS011;7115;50.150;8.568;2023-12-14T06:56:49;18.00;;;11.70;;
14078;SDS011;7115;50.150;8.568;2023-12-14T06:59:17;24.33;;;14.57;;
14078;SDS011;7115;50.150;8.568;2023-12-14T07:01:44;17.47;;;11.30;;
14078;SDS011;7115;50.150;8.568;2023-12-14T07:04:11;16.33;;;10.00;;
14078;SDS011;7115;50.150;8.568;2023-12-14T07:06:42;15.53;;;10.60;;
14078;SDS011;7115;50.150;8.568;2023-12-14T07:09:09;17.50;;;10.37;;
14078;SDS011;7115;50.150;8.568;2023-12-14T07:11:36;18.10;;;11.43;;
14078;SDS011;7115;50.150;8.568;2023-12-14T07:14:03;15.57;;;10.37;;
14078;SDS011;7115;50.150;8.568;2023-12-14T07:16:31;13.97;;;9.37;;
14078;SDS011;7115;50.150;8.568;2023-12-14T07:18:58;13.93;;;9.17;;
14078;SDS011;7115;50.150;8.568;2023-12-14T07:21:25;12.70;;;9.70;;
14078;SDS011;7115;50.150;8.568;2023-12-14T07:23:52;14.67;;;9.80;;
14078;SDS011;7115;50.150;8.568;2023-12-14T07:26:19;15.20;;;10.10;;
14078;SDS011;7115;50.150;8.568;2023-12-14T07:28:46;14.77;;;10.03;;
14078;SDS011;7115;50.150;8.568;2023-12-14T07:31:13;14.80;;;10.50;;
14078;SDS011;7115;50.150;8.568;2023-12-14T07:33:41;16.73;;;9.73;;
14078;SDS011;7115;50.150;8.568;2023-12-14T07:36:08;14.57;;;9.10;;
14078;SDS011;7115;50.150;8.568;2023-12-14T07:38:36;17.13;;;11.80;;
14078;SDS011;7115;50.150;8.568;2023-12-14T07:41:03;15.27;;;10.07;;
14078;SDS011;7115;50.150;8.568;2023-12-14T07:43:30;16.03;;;10.67;;
14078;SDS011;7115;50.150;8.568;2023-12-14T07:45:57;14.37;;;10.00;;
14078;SDS011;7115;50.150;8.568;2023-12-14T07:48:24;13.60;;;9.90;;
14078;SDS011;7115;50.150;8.568;2023-12-14T07:50:54;14.03;;;9.57;;
14078;SDS011;7115;50.150;8.568;2023-12-14T07:53:21;14.10;;;10.17;;
14078;SDS011;7115;50.150;8.568;2023-12-14T07:55:48;13.30;;;9.10;;
14078;SDS011;7115;50.150;8.568;2023-12-14T07:58:15;15.40;;;9.53;;
14078;SDS011;7115;50.150;8.568;2023-12-14T08:00:42;15.07;;;9.13;;
14078;SDS011;7115;50.150;8.568;2023-12-14T08:03:09;12.97;;;9.20;;
14078;SDS011;7115;50.150;8.568;2023-12-14T08:05:36;14.93;;;9.80;;
14078;SDS011;7115;50.150;8.568;2023-12-14T08:08:05;13.87;;;9.23;;
14078;SDS011;7115;50.150;8.568;2023-12-14T08:10:32;14.60;;;9.50;;
14078;SDS011;7115;50.150;8.568;2023-12-14T08:12:59;14.73;;;9.17;;
14078;SDS011;7115;50.150;8.568;2023-12-14T08:15:26;15.40;;;9.57;;
14078;SDS011;7115;50.150;8.568;2023-12-14T08:17:53;13.93;;;8.93;;
14078;SDS011;7115;50.150;8.568;2023-12-14T08:20:21;12.13;;;8.40;;
14078;SDS011;7115;50.150;8.568;2023-12-14T08:22:48;11.87;;;8.93;;
14078;SDS011;7115;50.150;8.568;2023-12-14T08:25:16;17.60;;;11.13;;
14078;SDS011;7115;50.150;8.568;2023-12-14T08:27:44;17.83;;;12.93;;
14078;SDS011;7115;50.150;8.568;2023-12-14T08:30:11;13.93;;;10.00;;
14078;SDS011;7115;50.150;8.568;2023-12-14T08:32:39;11.43;;;8.17;;
14078;SDS011;7115;50.150;8.568;2023-12-14T08:35:07;13.10;;;9.07;;
14078;SDS011;7115;50.150;8.568;2023-12-14T08:37:35;12.87;;;8.90;;
14078;SDS011;7115;50.150;8.568;2023-12-14T08:40:02;10.57;;;7.63;;
14078;SDS011;7115;50.150;8.568;2023-12-14T08:42:31;12.53;;;8.30;;
14078;SDS011;7115;50.150;8.568;2023-12-14T08:44:58;12.40;;;8.27;;
14078;SDS011;7115;50.150;8.568;2023-12-14T08:47:25;12.97;;;8.77;;
14078;SDS011;7115;50.150;8.568;2023-12-14T08:49:52;13.37;;;9.03;;
14078;SDS011;7115;50.150;8.568;2023-12-14T08:52:19;12.30;;;8.60;;
14078;SDS011;7115;50.150;8.568;2023-12-14T08:54:46;15.47;;;8.53;;
14078;SDS011;7115;50.150;8.568;2023-12-14T08:57:13;12.27;;;8.27;;
14078;SDS011;7115;50.150;8.568;2023-12-14T08:59:41;16.63;;;8.30;;
14078;SDS011;7115;50.150;8.568;2023-12-14T09:02:10;13.10;;;7.70;;
14078;SDS011;7115;50.150;8.568;2023-12-14T09:04:37;11.63;;;7.27;;
14078;SDS011;7115;50.150;8.568;2023-12-14T09:07:05;13.53;;;7.80;;
14078;SDS011;7115;50.150;8.568;2023-12-14T09:09:32;14.43;;;8.20;;
14078;SDS011;7115;50.150;8.568;2023-12-14T09:11:59;14.10;;;7.67;;
14078;SDS011;7115;50.150;8.568;2023-12-14T09:14:26;13.50;;;7.83;;
14078;SDS011;7115;50.150;8.568;2023-12-14T09:16:54;14.47;;;7.53;;
14078;SDS011;7115;50.150;8.568;2023-12-14T09:19:21;10.57;;;6.40;;
14078;SDS011;7115;50.150;8.568;2023-12-14T09:21:48;11.93;;;6.43;;
14078;SDS011;7115;50.150;8.568;2023-12-14T09:24:15;8.20;;;5.60;;
14078;SDS011;7115;50.150;8.568;2023-12-14T09:26:42;8.77;;;5.63;;
14078;SDS011;7115;50.150;8.568;2023-12-14T09:29:09;9.33;;;5.93;;
14078;SDS011;7115;50.150;8.568;2023-12-14T09:31:36;13.23;;;5.13;;
14078;SDS011;7115;50.150;8.568;2023-12-14T09:34:09;6.87;;;4.53;;
14078;SDS011;7115;50.150;8.568;2023-12-14T09:36:36;7.87;;;4.40;;
14078;SDS011;7115;50.150;8.568;2023-12-14T09:39:03;6.80;;;4.23;;
14078;SDS011;7115;50.150;8.568;2023-12-14T09:41:30;5.33;;;3.60;;
14078;SDS011;7115;50.150;8.568;2023-12-14T09:43:57;7.53;;;4.37;;
14078;SDS011;7115;50.150;8.568;2023-12-14T09:46:25;6.77;;;4.33;;
14078;SDS011;7115;50.150;8.568;2023-12-14T09:48:53;5.23;;;3.80;;
14078;SDS011;7115;50.150;8.568;2023-12-14T09:51:23;5.17;;;3.47;;
14078;SDS011;7115;50.150;8.568;2023-12-14T09:53:50;5.07;;;3.60;;
14078;SDS011;7115;50.150;8.568;2023-12-14T09:56:19;5.70;;;3.97;;
14078;SDS011;7115;50.150;8.568;2023-12-14T09:58:46;6.83;;;3.70;;
14078;SDS011;7115;50.150;8.568;2023-12-14T10:01:22;6.27;;;3.97;;
14078;SDS011;7115;50.150;8.568;2023-12-14T10:03:50;7.77;;;5.40;;
14078;SDS011;7115;50.150;8.568;2023-12-14T10:06:35;5.57;;;3.00;;
14078;SDS011;7115;50.150;8.568;2023-12-14T10:09:03;4.20;;;2.67;;
14078;SDS011;7115;50.150;8.568;2023-12-14T10:11:35;3.60;;;2.10;;
14078;SDS011;7115;50.150;8.568;2023-12-14T10:14:02;2.87;;;2.23;;
14078;SDS011;7115;50.150;8.568;2023-12-14T10:16:43;2.60;;;2.00;;
14078;SDS011;7115;50.150;8.568;2023-12-14T10:19:10;3.63;;;2.33;;
14078;SDS011;7115;50.150;8.568;2023-12-14T10:21:39;3.23;;;2.30;;
14078;SDS011;7115;50.150;8.568;2023-12-14T10:24:07;2.70;;;2.37;;
14078;SDS011;7115;50.150;8.568;2023-12-14T10:26:34;4.30;;;2.60;;
14078;SDS011;7115;50.150;8.568;2023-12-14T10:29:02;3.17;;;2.20;;
14078;SDS011;7115;50.150;8.568;2023-12-14T10:31:31;3.63;;;2.60;;
14078;SDS011;7115;50.150;8.568;2023-12-14T10:33:58;5.07;;;2.37;;
14078;SDS011;7115;50.150;8.568;2023-12-14T10:36:25;2.90;;;1.83;;
14078;SDS011;7115;50.150;8.568;2023-12-14T10:38:54;2.80;;;2.20;;
14078;SDS011;7115;50.150;8.568;2023-12-14T10:41:24;2.80;;;2.27;;
14078;SDS011;7115;50.150;8.568;2023-12-14T10:43:53;4.30;;;2.40;;
14078;SDS011;7115;50.150;8.568;2023-12-14T10:46:41;3.80;;;2.23;;
14078;SDS011;7115;50.150;8.568;2023-12-14T10:49:09;3.97;;;2.90;;
14078;SDS011;7115;50.150;8.568;2023-12-14T10:51:37;3.17;;;2.10;;
14078;SDS011;7115;50.150;8.568;2023-12-14T10:54:11;3.53;;;2.00;;
14078;SDS011;7115;50.150;8.568;2023-12-14T10:56:39;2.70;;;2.07;;
14078;SDS011;7115;50.150;8.568;2023-12-14T10:59:06;3.30;;;2.70;;
14078;SDS011;7115;50.150;8.568;2023-12-14T11:01:34;7.63;;;5.43;;
14078;SDS011;7115;50.150;8.568;2023-12-14T11:04:05;3.17;;;2.10;;
14078;SDS011;7115;50.150;8.568;2023-12-14T11:06:36;3.43;;;2.00;;
14078;SDS011;7115;50.150;8.568;2023-12-14T11:09:05;3.03;;;2.10;;
14078;SDS011;7115;50.150;8.568;2023-12-14T11:11:47;3.63;;;2.00;;
14078;SDS011;7115;50.150;8.568;2023-12-14T11:14:24;6.00;;;3.80;;
14078;SDS011;7115;50.150;8.568;2023-12-14T11:16:53;9.23;;;5.23;;
14078;SDS011;7115;50.150;8.568;2023-12-14T11:19:25;8.87;;;5.30;;
14078;SDS011;7115;50.150;8.568;2023-12-14T11:24:53;14.07;;;8.07;;
14078;SDS011;7115;50.150;8.568;2023-12-14T11:27:29;14.70;;;6.77;;
14078;SDS011;7115;50.150;8.568;2023-12-14T11:29:58;5.20;;;3.50;;
14078;SDS011;7115;50.150;8.568;2023-12-14T11:32:26;8.20;;;4.07;;
14078;SDS011;7115;50.150;8.568;2023-12-14T11:34:53;4.17;;;3.13;;
14078;SDS011;7115;50.150;8.568;2023-12-14T11:37:22;3.87;;;2.33;;
14078;SDS011;7115;50.150;8.568;2023-12-14T11:39:50;3.90;;;2.80;;
14078;SDS011;7115;50.150;8.568;2023-12-14T11:42:19;7.47;;;3.90;;
14078;SDS011;7115;50.150;8.568;2023-12-14T11:44:48;5.47;;;3.20;;
14078;SDS011;7115;50.150;8.568;2023-12-14T11:47:14;5.73;;;3.63;;
14078;SDS011;7115;50.150;8.568;2023-12-14T11:49:42;8.77;;;5.00;;
14078;SDS011;7115;50.150;8.568;2023-12-14T11:52:09;6.53;;;3.87;;
14078;SDS011;7115;50.150;8.568;2023-12-14T11:54:37;6.63;;;4.23;;
14078;SDS011;7115;50.150;8.568;2023-12-14T11:57:04;3.50;;;2.40;;
14078;SDS011;7115;50.150;8.568;2023-12-14T11:59:34;4.70;;;2.30;;
14078;SDS011;7115;50.150;8.568;2023-12-14T12:02:04;3.13;;;2.20;;
14078;SDS011;7115;50.150;8.568;2023-12-14T12:04:31;4.43;;;2.70;;
14078;SDS011;7115;50.150;8.568;2023-12-14T12:06:59;3.33;;;2.10;;
14078;SDS011;7115;50.150;8.568;2023-12-14T12:09:34;2.47;;;2.10;;
14078;SDS011;7115;50.150;8.568;2023-12-14T12:12:05;3.63;;;1.87;;
14078;SDS011;7115;50.150;8.568;2023-12-14T12:14:32;4.60;;;2.87;;
14078;SDS011;7115;50.150;8.568;2023-12-14T12:17:00;8.07;;;4.77;;
14078;SDS011;7115;50.150;8.568;2023-12-14T12:19:28;4.10;;;2.60;;
14078;SDS011;7115;50.150;8.568;2023-12-14T12:21:55;1.73;;;1.40;;
14078;SDS011;7115;50.150;8.568;2023-12-14T12:24:22;4.57;;;3.20;;
14078;SDS011;7115;50.150;8.568;2023-12-14T12:26:53;2.70;;;1.90;;
14078;SDS011;7115;50.150;8.568;2023-12-14T12:29:19;1.77;;;1.03;;
14078;SDS011;7115;50.150;8.568;2023-12-14T12:31:47;1.40;;;1.10;;
14078;SDS011;7115;50.150;8.568;2023-12-14T12:34:14;1.47;;;1.10;;
14078;SDS011;7115;50.150;8.568;2023-12-14T12:36:43;3.93;;;0.90;;
14078;SDS011;7115;50.150;8.568;2023-12-14T12:39:10;1.40;;;0.90;;
14078;SDS011;7115;50.150;8.568;2023-12-14T12:41:38;0.70;;;0.70;;
14078;SDS011;7115;50.150;8.568;2023-12-14T12:44:05;1.17;;;1.00;;
14078;SDS011;7115;50.150;8.568;2023-12-14T12:46:33;1.03;;;0.80;;
14078;SDS011;7115;50.150;8.568;2023-12-14T12:49:01;0.90;;;0.67;;
14078;SDS011;7115;50.150;8.568;2023-12-14T12:51:28;3.47;;;0.80;;
14078;SDS011;7115;50.150;8.568;2023-12-14T12:53:58;2.17;;;1.00;;
14078;SDS011;7115;50.150;8.568;2023-12-14T12:56:38;1.40;;;1.00;;
14078;SDS011;7115;50.150;8.568;2023-12-14T12:59:05;1.00;;;0.70;;
14078;SDS011;7115;50.150;8.568;2023-12-14T13:01:35;1.20;;;0.80;;
14078;SDS011;7115;50.150;8.568;2023-12-14T13:04:03;3.27;;;1.00;;
14078;SDS011;7115;50.150;8.568;2023-12-14T13:06:31;1.73;;;1.10;;
14078;SDS011;7115;50.150;8.568;2023-12-14T13:08:59;1.60;;;0.90;;
14078;SDS011;7115;50.150;8.568;2023-12-14T13:11:26;3.00;;;2.07;;
14078;SDS011;7115;50.150;8.568;2023-12-14T13:13:53;4.90;;;2.63;;
14078;SDS011;7115;50.150;8.568;2023-12-14T13:16:20;6.37;;;4.57;;
14078;SDS011;7115;50.150;8.568;2023-12-14T13:18:47;4.17;;;2.23;;
14078;SDS011;7115;50.150;8.568;2023-12-14T13:21:14;2.30;;;1.60;;
14078;SDS011;7115;50.150;8.568;2023-12-14T13:23:41;2.27;;;1.90;;
14078;SDS011;7115;50.150;8.568;2023-12-14T13:26:11;1.63;;;1.50;;
14078;SDS011;7115;50.150;8.568;2023-12-14T13:28:38;1.63;;;1.53;;
14078;SDS011;7115;50.150;8.568;2023-12-14T13:31:05;3.57;;;1.93;;
14078;SDS011;7115;50.150;8.568;2023-12-14T13:33:33;2.90;;;1.80;;
14078;SDS011;7115;50.150;8.568;2023-12-14T13:36:00;2.30;;;1.37;;
14078;SDS011;7115;50.150;8.568;2023-12-14T13:38:27;4.83;;;1.80;;
14078;SDS011;7115;50.150;8.568;2023-12-14T13:40:54;2.00;;;1.57;;
14078;SDS011;7115;50.150;8.568;2023-12-14T13:43:22;2.60;;;2.10;;
14078;SDS011;7115;50.150;8.568;2023-12-14T13:45:49;3.20;;;2.00;;
14078;SDS011;7115;50.150;8.568;2023-12-14T13:48:39;3.90;;;2.90;;
14078;SDS011;7115;50.150;8.568;2023-12-14T13:51:07;3.27;;;2.73;;
14078;SDS011;7115;50.150;8.568;2023-12-14T13:53:34;5.43;;;3.40;;
14078;SDS011;7115;50.150;8.568;2023-12-14T13:56:01;5.73;;;3.73;;
14078;SDS011;7115;50.150;8.568;2023-12-14T13:58:30;8.40;;;3.47;;
14078;SDS011;7115;50.150;8.568;2023-12-14T14:01:00;4.47;;;3.20;;
14078;SDS011;7115;50.150;8.568;2023-12-14T14:03:27;10.23;;;6.20;;
14078;SDS011;7115;50.150;8.568;2023-12-14T14:05:54;5.00;;;3.53;;
14078;SDS011;7115;50.150;8.568;2023-12-14T14:08:22;5.20;;;3.70;;
14078;SDS011;7115;50.150;8.568;2023-12-14T14:10:49;5.40;;;3.40;;
14078;SDS011;7115;50.150;8.568;2023-12-14T14:13:16;9.17;;;3.50;;
14078;SDS011;7115;50.150;8.568;2023-12-14T14:15:44;4.40;;;3.50;;
14078;SDS011;7115;50.150;8.568;2023-12-14T14:18:11;7.30;;;3.87;;
14078;SDS011;7115;50.150;8.568;2023-12-14T14:20:38;4.63;;;3.43;;
14078;SDS011;7115;50.150;8.568;2023-12-14T14:23:05;4.80;;;3.57;;
14078;SDS011;7115;50.150;8.568;2023-12-14T14:25:32;4.70;;;3.43;;
14078;SDS011;7115;50.150;8.568;2023-12-14T14:28:00;6.30;;;3.77;;
14078;SDS011;7115;50.150;8.568;2023-12-14T14:30:27;11.27;;;6.27;;
14078;SDS011;7115;50.150;8.568;2023-12-14T14:32:55;9.27;;;5.17;;
14078;SDS011;7115;50.150;8.568;2023-12-14T14:35:22;4.07;;;3.40;;
14078;SDS011;7115;50.150;8.568;2023-12-14T14:37:52;5.67;;;3.80;;
14078;SDS011;7115;50.150;8.568;2023-12-14T14:40:19;4.83;;;3.13;;
14078;SDS011;7115;50.150;8.568;2023-12-14T14:42:48;5.50;;;3.37;;
14078;SDS011;7115;50.150;8.568;2023-12-14T14:45:15;4.20;;;3.23;;
14078;SDS011;7115;50.150;8.568;2023-12-14T14:47:42;5.37;;;3.47;;
14078;SDS011;7115;50.150;8.568;2023-12-14T14:50:11;3.97;;;2.80;;
14078;SDS011;7115;50.150;8.568;2023-12-14T14:52:38;4.53;;;3.03;;
14078;SDS011;7115;50.150;8.568;2023-12-14T14:55:05;5.07;;;3.10;;
14078;SDS011;7115;50.150;8.568;2023-12-14T14:57:32;3.77;;;2.80;;